Airport ICAO


07:24 UTC

11°C

Clear skies


An affordable passengers' Moving Map for your aircraft. Made for the iPad and the iPhone
More information here

LIMG Albenga


Albenga ITALY   VFR CAVOK


METAR LIMG 200650Z 26005KT CAVOK 11/07 Q1016 0h34min





NOTAMS

OPEN